createdAt,value
2022-08-09T01:12:06.226Z,1.20
2022-08-09T01:15:20.660Z,0.77
2022-08-09T01:18:31.653Z,0.90
2022-08-09T01:22:16.394Z,1.00
2022-08-09T01:25:49.039Z,1.10
2022-08-09T01:28:58.091Z,0.90
2022-08-09T01:32:31.998Z,0.65
2022-08-09T01:35:52.028Z,1.25
2022-08-09T01:38:58.089Z,0.57
2022-08-09T01:42:11.125Z,0.98
2022-08-09T01:45:18.624Z,0.88
2022-08-09T01:48:29.784Z,1.15
2022-08-09T01:51:38.701Z,0.93
2022-08-09T01:55:00.660Z,0.80
2022-08-09T01:58:08.956Z,0.93
2022-08-09T02:01:18.322Z,1.00
2022-08-09T02:04:26.195Z,1.20
2022-08-09T02:08:39.841Z,1.30
2022-08-09T02:11:03.876Z,0.93
2022-08-09T02:14:45.265Z,1.85
2022-08-09T02:18:09.389Z,1.33
2022-08-09T02:21:22.095Z,1.70
2022-08-09T02:24:39.011Z,1.58
2022-08-09T02:28:00.370Z,1.33
2022-08-09T02:31:22.923Z,1.08
2022-08-09T02:34:40.763Z,0.60
2022-08-09T02:37:59.945Z,1.30
2022-08-09T02:41:15.905Z,1.00
2022-08-09T02:44:30.229Z,1.60
2022-08-09T02:47:46.633Z,0.93
2022-08-09T02:51:03.876Z,0.77
2022-08-09T02:54:12.340Z,1.23
2022-08-09T02:57:23.366Z,0.90
2022-08-09T03:00:29.755Z,1.40
2022-08-09T03:04:05.723Z,0.75
2022-08-09T03:07:12.465Z,1.00
2022-08-09T03:10:20.144Z,1.10
2022-08-09T03:13:27.002Z,0.73
2022-08-09T03:16:49.455Z,0.80
2022-08-09T03:20:02.827Z,0.90
2022-08-09T03:23:14.667Z,1.02
2022-08-09T03:26:21.969Z,0.70
2022-08-09T03:29:43.197Z,0.85
2022-08-09T03:33:05.755Z,1.05
2022-08-09T03:36:27.718Z,1.20
2022-08-09T03:39:37.784Z,0.80
2022-08-09T03:42:43.291Z,0.80
2022-08-09T03:46:04.727Z,1.17
2022-08-09T03:49:17.402Z,1.13
2022-08-09T03:52:24.139Z,0.80
2022-08-09T03:55:36.303Z,0.95
2022-08-09T03:58:46.022Z,0.90
2022-08-09T04:01:59.241Z,0.88
2022-08-09T04:05:06.774Z,0.93
2022-08-09T04:08:18.530Z,1.10
2022-08-09T04:11:52.789Z,1.00
2022-08-09T04:15:01.519Z,1.10
2022-08-09T04:18:08.770Z,1.20
2022-08-09T04:21:16.304Z,1.30
2022-08-09T04:24:22.164Z,1.20
2022-08-09T04:27:32.736Z,0.93
2022-08-09T04:30:42.818Z,1.23
2022-08-09T04:33:53.019Z,1.15
2022-08-09T04:37:02.444Z,0.90
2022-08-09T04:40:09.596Z,0.90
2022-08-09T04:43:17.199Z,0.95
2022-08-09T04:46:38.240Z,1.00
2022-08-09T04:49:54.422Z,0.93
2022-08-09T04:53:00.521Z,0.82
2022-08-09T04:56:05.691Z,0.77
2022-08-09T04:59:13.118Z,1.05
2022-08-09T05:02:20.413Z,1.00
2022-08-09T05:05:31.768Z,0.70
2022-08-09T05:08:49.850Z,0.67
2022-08-09T05:15:03.501Z,0.80
2022-08-09T05:18:39.941Z,0.87
2022-08-09T05:21:47.320Z,1.05
2022-08-09T05:25:01.131Z,0.80
2022-08-09T05:28:07.975Z,0.80
2022-08-09T05:31:12.527Z,0.63
2022-08-09T05:34:17.757Z,0.77
2022-08-09T05:37:22.985Z,1.23
2022-08-09T05:40:29.548Z,0.93
2022-08-09T05:43:36.191Z,0.77
2022-08-09T05:46:41.113Z,1.08
2022-08-09T05:50:24.021Z,0.70
2022-08-09T05:53:31.610Z,0.85
2022-08-09T05:56:38.000Z,0.97
2022-08-09T06:00:00.187Z,1.20
2022-08-09T06:03:10.864Z,0.88
2022-08-09T06:06:17.172Z,1.42
2022-08-09T06:09:23.141Z,1.45
2022-08-09T06:12:46.443Z,1.03
2022-08-09T06:16:05.385Z,1.17
2022-08-09T06:19:10.155Z,1.17
2022-08-09T06:22:16.468Z,0.65
2022-08-09T06:25:22.740Z,0.80
2022-08-09T06:28:32.010Z,0.95
2022-08-09T06:32:08.957Z,1.33
2022-08-09T06:35:06.389Z,0.98
2022-08-09T06:38:11.616Z,1.20
2022-08-09T06:41:20.593Z,1.40
2022-08-09T06:44:25.537Z,1.40
2022-08-09T06:47:39.820Z,1.45
2022-08-09T06:50:47.187Z,1.30
2022-08-09T06:53:55.003Z,1.40
2022-08-09T06:56:59.946Z,1.48
2022-08-09T07:00:56.552Z,1.25
2022-08-09T07:03:30.810Z,1.13
2022-08-09T07:06:36.225Z,1.30
2022-08-09T07:09:56.090Z,1.20
2022-08-09T07:13:05.404Z,1.60
2022-08-09T07:16:42.430Z,1.73
2022-08-09T07:19:55.405Z,1.88
2022-08-09T07:23:00.508Z,1.75
2022-08-09T07:26:05.942Z,2.22
2022-08-09T07:29:13.410Z,1.58
2022-08-09T07:32:18.393Z,1.48
2022-08-09T07:35:27.669Z,1.90
2022-08-09T07:38:35.034Z,1.42
2022-08-09T07:41:41.660Z,1.20
2022-08-09T07:44:52.473Z,1.10
2022-08-09T07:48:04.904Z,1.35
2022-08-09T07:52:06.333Z,1.50
2022-08-09T07:54:35.143Z,1.57
2022-08-09T07:57:46.878Z,1.65
2022-08-09T08:00:59.072Z,1.60
2022-08-09T08:04:11.385Z,1.70
2022-08-09T08:08:44.301Z,1.70
2022-08-09T08:11:03.074Z,1.48
2022-08-09T08:14:06.837Z,1.43
2022-08-09T08:17:24.667Z,1.70
2022-08-09T08:20:37.822Z,1.60
2022-08-09T08:23:55.651Z,1.30
2022-08-09T08:27:01.166Z,1.73
2022-08-09T08:33:12.008Z,1.60
2022-08-09T08:36:30.564Z,1.80
2022-08-09T08:39:39.772Z,1.75
2022-08-09T08:42:48.742Z,1.23
2022-08-09T08:46:10.128Z,1.40
2022-08-09T08:49:38.306Z,1.70
2022-08-09T08:52:58.248Z,2.30
2022-08-09T08:56:04.963Z,2.40
2022-08-09T08:59:19.741Z,2.95
2022-08-09T09:02:30.929Z,3.00
2022-08-09T09:06:00.394Z,2.28
2022-08-09T09:09:02.141Z,2.88
2022-08-09T09:12:29.246Z,2.33
2022-08-09T09:15:34.501Z,2.20
2022-08-09T09:22:07.476Z,2.85
2022-08-09T09:26:01.464Z,2.47
2022-08-09T09:28:39.153Z,2.30
2022-08-09T09:32:15.508Z,2.33
2022-08-09T09:35:20.551Z,2.40
2022-08-09T09:38:40.514Z,2.65
2022-08-09T09:41:49.339Z,9.95
2022-08-09T09:45:00.345Z,4.85
2022-08-09T09:48:10.639Z,4.25
2022-08-09T09:51:38.128Z,2.95
2022-08-09T09:54:55.192Z,5.88
2022-08-09T09:58:16.385Z,5.03
2022-08-09T10:01:37.201Z,5.18
2022-08-09T10:04:44.207Z,4.82
2022-08-09T10:08:11.131Z,5.35
2022-08-09T10:12:00.950Z,4.22
2022-08-09T10:15:17.489Z,4.28
2022-08-09T10:18:30.541Z,3.35
2022-08-09T10:21:46.156Z,4.03
2022-08-09T10:24:54.353Z,5.47
2022-08-09T10:27:59.745Z,5.43
2022-08-09T10:34:33.603Z,2.70
2022-08-09T10:37:40.687Z,2.65
2022-08-09T10:40:50.285Z,3.15
2022-08-09T10:44:02.030Z,3.20
2022-08-09T10:48:12.589Z,2.63
2022-08-09T10:51:07.603Z,3.15
2022-08-09T10:54:14.686Z,2.78
2022-08-09T10:57:19.378Z,3.40
2022-08-09T11:00:30.467Z,2.47
2022-08-09T11:03:50.098Z,2.35
2022-08-09T11:07:06.963Z,2.15
2022-08-09T11:10:11.577Z,2.40
2022-08-09T11:13:51.063Z,2.88
2022-08-09T11:16:42.317Z,2.83
2022-08-09T11:20:09.773Z,3.30
2022-08-09T11:23:23.858Z,3.33
2022-08-09T11:26:52.223Z,3.67
2022-08-09T11:30:05.224Z,4.35
2022-08-09T11:33:21.798Z,4.18
2022-08-09T11:36:30.341Z,4.93
2022-08-09T11:40:03.957Z,5.07
2022-08-09T11:43:08.632Z,3.30
2022-08-09T11:46:26.651Z,3.10
2022-08-09T11:50:54.250Z,2.90
2022-08-09T11:53:58.423Z,2.72
2022-08-09T11:57:47.480Z,3.17
2022-08-09T12:01:09.013Z,2.85
2022-08-09T12:04:23.541Z,3.88
2022-08-09T12:07:41.280Z,2.88
2022-08-09T12:11:01.054Z,2.72
2022-08-09T12:14:28.536Z,3.00
2022-08-09T12:17:42.215Z,3.58
2022-08-09T12:20:49.322Z,4.80
2022-08-09T12:24:06.399Z,5.75
2022-08-09T12:29:13.651Z,4.90
2022-08-09T12:30:48.185Z,5.00
2022-08-09T12:34:01.027Z,5.15
2022-08-09T12:37:09.724Z,5.10
2022-08-09T12:40:29.405Z,4.15
2022-08-09T12:44:04.881Z,4.00
2022-08-09T12:47:00.076Z,4.32
2022-08-09T12:50:19.959Z,4.00
2022-08-09T12:53:37.749Z,4.40
2022-08-09T12:56:53.802Z,3.67
2022-08-09T13:00:25.253Z,3.22
2022-08-09T13:03:57.066Z,3.75
2022-08-09T13:06:58.400Z,4.13
2022-08-09T13:10:04.537Z,3.70
2022-08-09T13:13:11.444Z,4.05
2022-08-09T13:16:17.783Z,3.83
2022-08-09T13:20:10.451Z,3.10
2022-08-09T13:23:05.992Z,3.45
2022-08-09T13:26:44.605Z,3.17
2022-08-09T13:30:51.031Z,3.35
2022-08-09T13:33:52.748Z,3.28
2022-08-09T13:37:02.938Z,3.63
2022-08-09T13:41:55.279Z,3.45
2022-08-09T13:43:39.632Z,3.65
2022-08-09T13:47:25.355Z,4.15
2022-08-09T13:50:29.869Z,4.40
2022-08-09T13:53:42.913Z,4.43
2022-08-09T13:56:48.457Z,4.63
2022-08-09T13:59:53.008Z,5.22
2022-08-09T14:03:04.610Z,3.38
2022-08-09T14:06:26.770Z,4.72
2022-08-09T14:09:34.861Z,4.03
2022-08-09T14:12:41.107Z,3.63
2022-08-09T14:19:10.598Z,3.70
2022-08-09T14:22:15.885Z,3.25
2022-08-09T14:25:20.761Z,3.42
2022-08-09T14:28:26.863Z,3.20
2022-08-09T14:31:49.929Z,3.17
2022-08-09T14:34:56.888Z,2.97
2022-08-09T14:38:03.090Z,3.35
2022-08-09T14:41:34.376Z,3.08
2022-08-09T14:44:48.447Z,3.20
2022-08-09T14:48:00.180Z,2.92
2022-08-09T14:51:07.292Z,3.03
2022-08-09T14:54:22.369Z,2.70
2022-08-09T14:57:32.006Z,2.92
2022-08-09T15:00:51.142Z,3.30
2022-08-09T15:03:56.597Z,2.97
2022-08-09T15:07:01.244Z,2.90
2022-08-09T15:10:10.798Z,2.80
2022-08-09T15:13:18.541Z,2.95
2022-08-09T15:16:23.286Z,2.83
2022-08-09T15:19:35.915Z,3.05
2022-08-09T15:22:46.485Z,3.00
2022-08-09T15:25:51.852Z,3.22
2022-08-09T15:28:56.563Z,2.85
2022-08-09T15:32:01.402Z,2.90
2022-08-09T15:35:18.470Z,2.65
2022-08-09T15:38:33.171Z,3.00
2022-08-09T15:41:42.025Z,2.58
2022-08-09T15:44:48.913Z,2.67
2022-08-09T15:48:05.619Z,3.10
2022-08-09T15:51:44.161Z,3.17
2022-08-09T15:54:46.219Z,3.33
2022-08-09T15:57:53.448Z,2.80
2022-08-09T16:00:59.290Z,3.92
2022-08-09T16:04:04.405Z,2.70
2022-08-09T16:07:09.447Z,2.67
2022-08-09T16:10:38.463Z,3.55
2022-08-09T16:14:02.582Z,2.67
2022-08-09T16:17:05.705Z,2.65
2022-08-09T16:20:12.623Z,2.85
2022-08-09T16:23:20.002Z,2.60
2022-08-09T16:26:35.528Z,2.70
2022-08-09T16:29:50.583Z,2.63
2022-08-09T16:33:12.194Z,2.47
2022-08-09T16:36:20.794Z,2.60
2022-08-09T16:39:39.952Z,2.65
2022-08-09T16:42:55.883Z,2.60
2022-08-09T16:46:00.908Z,2.60
2022-08-09T16:49:16.902Z,2.38
2022-08-09T16:52:31.892Z,2.88
2022-08-09T16:55:58.613Z,2.83
2022-08-09T16:59:10.287Z,2.53
2022-08-09T17:02:15.584Z,2.55
2022-08-09T17:05:22.788Z,2.45
2022-08-09T17:09:00.071Z,2.58
2022-08-09T17:12:10.477Z,2.60
2022-08-09T17:15:30.461Z,2.50
2022-08-09T17:18:45.228Z,2.35
2022-08-09T17:21:54.556Z,2.10
2022-08-09T17:25:04.801Z,2.33
2022-08-09T17:28:15.313Z,2.67
2022-08-09T17:31:24.341Z,2.28
2022-08-09T17:35:01.491Z,2.60
2022-08-09T17:38:11.431Z,2.53
2022-08-09T17:41:19.211Z,2.47
2022-08-09T17:44:42.010Z,2.65
2022-08-09T17:47:55.724Z,2.55
2022-08-09T17:51:10.366Z,2.40
2022-08-09T17:54:25.356Z,2.50
2022-08-09T17:58:03.626Z,2.17
2022-08-09T18:00:59.560Z,2.40
2022-08-09T18:04:05.273Z,2.40
2022-08-09T18:07:10.522Z,2.05
2022-08-09T18:10:30.070Z,2.42
2022-08-09T18:13:43.521Z,2.30
2022-08-09T18:17:01.980Z,2.50
2022-08-09T18:20:53.737Z,2.20
2022-08-09T18:24:10.268Z,2.27
2022-08-09T18:27:01.096Z,2.70
2022-08-09T18:30:34.962Z,2.45
2022-08-09T18:33:34.452Z,2.30
2022-08-09T18:36:39.919Z,2.60
2022-08-09T18:42:54.168Z,2.17
2022-08-09T18:46:47.112Z,2.67
2022-08-09T18:49:25.945Z,2.30
2022-08-09T18:52:34.992Z,2.58
2022-08-09T18:55:45.478Z,2.50
2022-08-09T18:59:03.529Z,2.30
